sensor_id;sensor_type;location;lat;lon;timestamp;P1;durP1;ratioP1;P2;durP2;ratioP2
75864;SDS011;64510;46.704;38.274;2023-04-06T00:02:12;9.88;;;3.92;;
75864;SDS011;64510;46.704;38.274;2023-04-06T00:04:38;11.60;;;4.60;;
75864;SDS011;64510;46.704;38.274;2023-04-06T00:07:04;7.10;;;4.47;;
75864;SDS011;64510;46.704;38.274;2023-04-06T00:09:30;6.65;;;3.70;;
75864;SDS011;64510;46.704;38.274;2023-04-06T00:11:56;6.22;;;5.10;;
75864;SDS011;64510;46.704;38.274;2023-04-06T00:14:23;9.45;;;4.70;;
75864;SDS011;64510;46.704;38.274;2023-04-06T00:16:48;8.65;;;4.85;;
75864;SDS011;64510;46.704;38.274;2023-04-06T00:19:14;11.07;;;5.18;;
75864;SDS011;64510;46.704;38.274;2023-04-06T00:21:40;8.48;;;4.00;;
75864;SDS011;64510;46.704;38.274;2023-04-06T00:24:06;5.68;;;3.78;;
75864;SDS011;64510;46.704;38.274;2023-04-06T00:26:32;10.05;;;4.72;;
75864;SDS011;64510;46.704;38.274;2023-04-06T00:28:58;9.15;;;5.32;;
75864;SDS011;64510;46.704;38.274;2023-04-06T00:31:24;7.55;;;4.45;;
75864;SDS011;64510;46.704;38.274;2023-04-06T00:33:50;14.10;;;5.70;;
75864;SDS011;64510;46.704;38.274;2023-04-06T00:36:16;13.60;;;5.28;;
75864;SDS011;64510;46.704;38.274;2023-04-06T00:38:42;10.65;;;5.68;;
75864;SDS011;64510;46.704;38.274;2023-04-06T00:41:08;13.38;;;4.93;;
75864;SDS011;64510;46.704;38.274;2023-04-06T00:43:34;10.25;;;5.93;;
75864;SDS011;64510;46.704;38.274;2023-04-06T00:46:00;7.00;;;4.25;;
75864;SDS011;64510;46.704;38.274;2023-04-06T00:48:26;10.95;;;5.40;;
75864;SDS011;64510;46.704;38.274;2023-04-06T00:50:52;5.30;;;4.03;;
75864;SDS011;64510;46.704;38.274;2023-04-06T00:53:18;12.55;;;4.93;;
75864;SDS011;64510;46.704;38.274;2023-04-06T00:55:44;9.02;;;5.40;;
75864;SDS011;64510;46.704;38.274;2023-04-06T00:58:10;6.95;;;4.80;;
75864;SDS011;64510;46.704;38.274;2023-04-06T01:00:45;13.32;;;4.78;;
75864;SDS011;64510;46.704;38.274;2023-04-06T01:03:16;7.75;;;5.25;;
75864;SDS011;64510;46.704;38.274;2023-04-06T01:05:42;7.32;;;3.85;;
75864;SDS011;64510;46.704;38.274;2023-04-06T01:08:31;11.15;;;4.60;;
75864;SDS011;64510;46.704;38.274;2023-04-06T01:11:10;10.73;;;4.85;;
75864;SDS011;64510;46.704;38.274;2023-04-06T01:13:36;9.32;;;5.53;;
75864;SDS011;64510;46.704;38.274;2023-04-06T01:16:06;7.03;;;4.00;;
75864;SDS011;64510;46.704;38.274;2023-04-06T01:18:55;6.38;;;4.65;;
75864;SDS011;64510;46.704;38.274;2023-04-06T01:21:28;9.50;;;4.70;;
75864;SDS011;64510;46.704;38.274;2023-04-06T01:24:10;13.10;;;4.55;;
75864;SDS011;64510;46.704;38.274;2023-04-06T01:27:02;8.25;;;4.53;;
75864;SDS011;64510;46.704;38.274;2023-04-06T01:29:45;9.43;;;4.88;;
75864;SDS011;64510;46.704;38.274;2023-04-06T01:32:17;7.05;;;3.78;;
75864;SDS011;64510;46.704;38.274;2023-04-06T01:34:51;7.65;;;4.70;;
75864;SDS011;64510;46.704;38.274;2023-04-06T01:37:17;11.40;;;3.90;;
75864;SDS011;64510;46.704;38.274;2023-04-06T01:39:44;7.93;;;4.60;;
75864;SDS011;64510;46.704;38.274;2023-04-06T01:42:17;6.63;;;3.70;;
75864;SDS011;64510;46.704;38.274;2023-04-06T01:44:46;8.65;;;3.88;;
75864;SDS011;64510;46.704;38.274;2023-04-06T01:47:13;9.30;;;4.38;;
75864;SDS011;64510;46.704;38.274;2023-04-06T01:49:40;11.73;;;4.63;;
75864;SDS011;64510;46.704;38.274;2023-04-06T01:52:09;8.88;;;4.78;;
75864;SDS011;64510;46.704;38.274;2023-04-06T01:54:39;11.45;;;4.30;;
75864;SDS011;64510;46.704;38.274;2023-04-06T01:57:19;11.48;;;4.93;;
75864;SDS011;64510;46.704;38.274;2023-04-06T01:59:51;9.02;;;4.13;;
75864;SDS011;64510;46.704;38.274;2023-04-06T02:02:38;8.10;;;3.55;;
75864;SDS011;64510;46.704;38.274;2023-04-06T02:05:10;12.38;;;4.63;;
75864;SDS011;64510;46.704;38.274;2023-04-06T02:07:36;9.82;;;3.90;;
75864;SDS011;64510;46.704;38.274;2023-04-06T02:10:03;7.22;;;4.13;;
75864;SDS011;64510;46.704;38.274;2023-04-06T02:12:36;7.70;;;3.92;;
75864;SDS011;64510;46.704;38.274;2023-04-06T02:15:04;9.73;;;3.40;;
75864;SDS011;64510;46.704;38.274;2023-04-06T02:17:31;7.10;;;3.85;;
75864;SDS011;64510;46.704;38.274;2023-04-06T02:19:57;10.75;;;3.70;;
75864;SDS011;64510;46.704;38.274;2023-04-06T02:22:23;6.78;;;3.55;;
75864;SDS011;64510;46.704;38.274;2023-04-06T02:24:49;11.82;;;4.45;;
75864;SDS011;64510;46.704;38.274;2023-04-06T02:27:15;9.70;;;3.92;;
75864;SDS011;64510;46.704;38.274;2023-04-06T02:29:45;6.47;;;3.55;;
75864;SDS011;64510;46.704;38.274;2023-04-06T02:32:13;8.50;;;4.53;;
75864;SDS011;64510;46.704;38.274;2023-04-06T02:34:39;8.30;;;4.20;;
75864;SDS011;64510;46.704;38.274;2023-04-06T02:37:05;10.45;;;4.60;;
75864;SDS011;64510;46.704;38.274;2023-04-06T02:39:31;9.98;;;4.53;;
75864;SDS011;64510;46.704;38.274;2023-04-06T02:41:57;8.93;;;4.00;;
75864;SDS011;64510;46.704;38.274;2023-04-06T02:44:25;8.95;;;3.47;;
75864;SDS011;64510;46.704;38.274;2023-04-06T02:46:50;9.93;;;4.38;;
75864;SDS011;64510;46.704;38.274;2023-04-06T02:49:16;7.57;;;4.40;;
75864;SDS011;64510;46.704;38.274;2023-04-06T02:51:44;6.35;;;3.85;;
75864;SDS011;64510;46.704;38.274;2023-04-06T02:54:30;8.38;;;3.88;;
75864;SDS011;64510;46.704;38.274;2023-04-06T02:56:56;11.52;;;4.28;;
75864;SDS011;64510;46.704;38.274;2023-04-06T02:59:30;6.03;;;3.30;;
75864;SDS011;64510;46.704;38.274;2023-04-06T03:02:22;7.72;;;3.42;;
75864;SDS011;64510;46.704;38.274;2023-04-06T03:04:48;10.82;;;4.88;;
75864;SDS011;64510;46.704;38.274;2023-04-06T03:07:26;9.25;;;4.40;;
75864;SDS011;64510;46.704;38.274;2023-04-06T03:09:52;6.25;;;3.58;;
75864;SDS011;64510;46.704;38.274;2023-04-06T03:12:18;6.10;;;3.75;;
75864;SDS011;64510;46.704;38.274;2023-04-06T03:15:07;6.88;;;3.70;;
75864;SDS011;64510;46.704;38.274;2023-04-06T03:17:35;9.10;;;4.50;;
75864;SDS011;64510;46.704;38.274;2023-04-06T03:20:04;11.50;;;4.72;;
75864;SDS011;64510;46.704;38.274;2023-04-06T03:22:31;10.23;;;4.38;;
75864;SDS011;64510;46.704;38.274;2023-04-06T03:24:58;9.57;;;4.85;;
75864;SDS011;64510;46.704;38.274;2023-04-06T03:27:24;5.63;;;3.20;;
75864;SDS011;64510;46.704;38.274;2023-04-06T03:29:50;6.07;;;3.60;;
75864;SDS011;64510;46.704;38.274;2023-04-06T03:32:23;5.47;;;3.15;;
75864;SDS011;64510;46.704;38.274;2023-04-06T03:34:49;7.43;;;3.40;;
75864;SDS011;64510;46.704;38.274;2023-04-06T03:37:15;5.68;;;3.72;;
75864;SDS011;64510;46.704;38.274;2023-04-06T03:39:46;6.82;;;3.78;;
75864;SDS011;64510;46.704;38.274;2023-04-06T03:42:18;8.80;;;3.65;;
75864;SDS011;64510;46.704;38.274;2023-04-06T03:44:50;5.75;;;3.45;;
75864;SDS011;64510;46.704;38.274;2023-04-06T03:47:16;6.20;;;2.72;;
75864;SDS011;64510;46.704;38.274;2023-04-06T03:49:42;6.35;;;3.72;;
75864;SDS011;64510;46.704;38.274;2023-04-06T03:52:11;7.03;;;2.92;;
75864;SDS011;64510;46.704;38.274;2023-04-06T03:54:37;8.60;;;3.47;;
75864;SDS011;64510;46.704;38.274;2023-04-06T03:57:03;4.68;;;3.17;;
75864;SDS011;64510;46.704;38.274;2023-04-06T03:59:29;7.25;;;3.17;;
75864;SDS011;64510;46.704;38.274;2023-04-06T04:01:55;7.65;;;3.03;;
75864;SDS011;64510;46.704;38.274;2023-04-06T04:04:22;9.68;;;3.08;;
75864;SDS011;64510;46.704;38.274;2023-04-06T04:06:48;4.43;;;3.20;;
75864;SDS011;64510;46.704;38.274;2023-04-06T04:09:14;5.03;;;2.38;;
75864;SDS011;64510;46.704;38.274;2023-04-06T04:11:40;6.00;;;2.63;;
75864;SDS011;64510;46.704;38.274;2023-04-06T04:14:06;4.90;;;2.67;;
75864;SDS011;64510;46.704;38.274;2023-04-06T04:16:32;6.22;;;2.90;;
75864;SDS011;64510;46.704;38.274;2023-04-06T04:18:58;3.70;;;2.65;;
75864;SDS011;64510;46.704;38.274;2023-04-06T04:21:24;3.97;;;2.47;;
75864;SDS011;64510;46.704;38.274;2023-04-06T04:23:51;8.98;;;3.30;;
75864;SDS011;64510;46.704;38.274;2023-04-06T04:26:18;5.10;;;3.22;;
75864;SDS011;64510;46.704;38.274;2023-04-06T04:28:45;5.43;;;1.92;;
75864;SDS011;64510;46.704;38.274;2023-04-06T04:31:11;4.63;;;2.22;;
75864;SDS011;64510;46.704;38.274;2023-04-06T04:33:38;2.95;;;2.30;;
75864;SDS011;64510;46.704;38.274;2023-04-06T04:36:10;3.00;;;1.90;;
75864;SDS011;64510;46.704;38.274;2023-04-06T04:38:40;4.28;;;1.85;;
75864;SDS011;64510;46.704;38.274;2023-04-06T04:41:06;3.53;;;2.47;;
75864;SDS011;64510;46.704;38.274;2023-04-06T04:43:35;3.15;;;1.88;;
75864;SDS011;64510;46.704;38.274;2023-04-06T04:46:02;3.03;;;2.15;;
75864;SDS011;64510;46.704;38.274;2023-04-06T04:48:38;5.82;;;2.35;;
75864;SDS011;64510;46.704;38.274;2023-04-06T04:51:05;3.45;;;1.90;;
75864;SDS011;64510;46.704;38.274;2023-04-06T04:53:45;9.67;;;2.90;;
75864;SDS011;64510;46.704;38.274;2023-04-06T04:56:20;4.10;;;2.28;;
75864;SDS011;64510;46.704;38.274;2023-04-06T04:58:49;3.15;;;1.88;;
75864;SDS011;64510;46.704;38.274;2023-04-06T05:01:16;2.60;;;1.58;;
75864;SDS011;64510;46.704;38.274;2023-04-06T05:03:43;2.22;;;1.50;;
75864;SDS011;64510;46.704;38.274;2023-04-06T05:06:13;1.40;;;1.13;;
75864;SDS011;64510;46.704;38.274;2023-04-06T05:08:40;3.88;;;1.50;;
75864;SDS011;64510;46.704;38.274;2023-04-06T05:11:08;2.92;;;1.35;;
75864;SDS011;64510;46.704;38.274;2023-04-06T05:13:40;2.78;;;1.08;;
75864;SDS011;64510;46.704;38.274;2023-04-06T05:16:11;3.25;;;1.20;;
75864;SDS011;64510;46.704;38.274;2023-04-06T05:18:37;1.65;;;1.13;;
75864;SDS011;64510;46.704;38.274;2023-04-06T05:21:05;2.53;;;1.10;;
75864;SDS011;64510;46.704;38.274;2023-04-06T05:23:42;2.25;;;1.40;;
75864;SDS011;64510;46.704;38.274;2023-04-06T05:26:08;1.95;;;1.30;;
75864;SDS011;64510;46.704;38.274;2023-04-06T05:28:34;2.58;;;1.45;;
75864;SDS011;64510;46.704;38.274;2023-04-06T05:31:02;3.00;;;1.35;;
75864;SDS011;64510;46.704;38.274;2023-04-06T05:33:35;1.85;;;1.38;;
75864;SDS011;64510;46.704;38.274;2023-04-06T05:36:08;3.30;;;1.63;;
75864;SDS011;64510;46.704;38.274;2023-04-06T05:38:38;1.40;;;1.02;;
75864;SDS011;64510;46.704;38.274;2023-04-06T05:41:15;5.40;;;1.48;;
75864;SDS011;64510;46.704;38.274;2023-04-06T05:43:41;2.65;;;1.30;;
75864;SDS011;64510;46.704;38.274;2023-04-06T05:46:07;1.98;;;1.13;;
75864;SDS011;64510;46.704;38.274;2023-04-06T05:48:33;2.75;;;1.27;;
75864;SDS011;64510;46.704;38.274;2023-04-06T05:51:00;2.40;;;1.70;;
75864;SDS011;64510;46.704;38.274;2023-04-06T05:53:37;1.58;;;1.00;;
75864;SDS011;64510;46.704;38.274;2023-04-06T05:56:04;5.53;;;1.05;;
75864;SDS011;64510;46.704;38.274;2023-04-06T05:58:30;2.40;;;1.02;;
75864;SDS011;64510;46.704;38.274;2023-04-06T06:00:58;4.72;;;1.17;;
75864;SDS011;64510;46.704;38.274;2023-04-06T06:03:28;1.27;;;1.15;;
75864;SDS011;64510;46.704;38.274;2023-04-06T06:06:03;1.90;;;1.15;;
75864;SDS011;64510;46.704;38.274;2023-04-06T06:08:38;6.47;;;2.08;;
75864;SDS011;64510;46.704;38.274;2023-04-06T06:11:10;2.53;;;1.15;;
75864;SDS011;64510;46.704;38.274;2023-04-06T06:13:36;1.40;;;1.17;;
75864;SDS011;64510;46.704;38.274;2023-04-06T06:16:02;1.63;;;1.15;;
75864;SDS011;64510;46.704;38.274;2023-04-06T06:20:59;4.13;;;1.23;;
75864;SDS011;64510;46.704;38.274;2023-04-06T06:23:25;1.30;;;1.20;;
75864;SDS011;64510;46.704;38.274;2023-04-06T06:25:52;3.05;;;1.50;;
75864;SDS011;64510;46.704;38.274;2023-04-06T06:28:21;2.25;;;1.15;;
75864;SDS011;64510;46.704;38.274;2023-04-06T06:30:47;2.70;;;1.20;;
75864;SDS011;64510;46.704;38.274;2023-04-06T06:33:18;2.25;;;1.20;;
75864;SDS011;64510;46.704;38.274;2023-04-06T06:35:45;1.80;;;1.17;;
75864;SDS011;64510;46.704;38.274;2023-04-06T06:38:11;3.38;;;1.25;;
75864;SDS011;64510;46.704;38.274;2023-04-06T06:40:37;1.92;;;1.38;;
75864;SDS011;64510;46.704;38.274;2023-04-06T06:43:03;3.00;;;1.00;;
75864;SDS011;64510;46.704;38.274;2023-04-06T06:45:33;1.98;;;1.20;;
75864;SDS011;64510;46.704;38.274;2023-04-06T06:47:59;1.73;;;1.40;;
75864;SDS011;64510;46.704;38.274;2023-04-06T06:50:25;1.60;;;0.77;;
75864;SDS011;64510;46.704;38.274;2023-04-06T06:52:52;2.83;;;1.08;;
75864;SDS011;64510;46.704;38.274;2023-04-06T06:55:18;3.05;;;1.42;;
75864;SDS011;64510;46.704;38.274;2023-04-06T06:57:44;2.28;;;1.20;;
75864;SDS011;64510;46.704;38.274;2023-04-06T07:00:12;2.05;;;0.90;;
75864;SDS011;64510;46.704;38.274;2023-04-06T07:02:41;4.10;;;1.30;;
75864;SDS011;64510;46.704;38.274;2023-04-06T07:05:07;2.30;;;1.60;;
75864;SDS011;64510;46.704;38.274;2023-04-06T07:07:33;2.10;;;1.20;;
75864;SDS011;64510;46.704;38.274;2023-04-06T07:09:59;2.40;;;1.30;;
75864;SDS011;64510;46.704;38.274;2023-04-06T07:12:26;1.67;;;1.23;;
75864;SDS011;64510;46.704;38.274;2023-04-06T07:14:52;3.30;;;1.88;;
75864;SDS011;64510;46.704;38.274;2023-04-06T07:17:18;1.60;;;1.50;;
75864;SDS011;64510;46.704;38.274;2023-04-06T07:19:44;1.98;;;1.58;;
75864;SDS011;64510;46.704;38.274;2023-04-06T07:22:11;3.50;;;1.20;;
75864;SDS011;64510;46.704;38.274;2023-04-06T07:24:37;1.63;;;1.23;;
75864;SDS011;64510;46.704;38.274;2023-04-06T07:27:03;3.85;;;1.30;;
75864;SDS011;64510;46.704;38.274;2023-04-06T07:29:30;1.70;;;0.88;;
75864;SDS011;64510;46.704;38.274;2023-04-06T07:31:56;3.67;;;1.15;;
75864;SDS011;64510;46.704;38.274;2023-04-06T07:34:22;1.13;;;0.93;;
75864;SDS011;64510;46.704;38.274;2023-04-06T07:36:48;5.60;;;1.35;;
75864;SDS011;64510;46.704;38.274;2023-04-06T07:39:14;1.20;;;1.10;;
75864;SDS011;64510;46.704;38.274;2023-04-06T07:41:41;1.20;;;1.10;;
75864;SDS011;64510;46.704;38.274;2023-04-06T07:44:07;5.30;;;1.15;;
75864;SDS011;64510;46.704;38.274;2023-04-06T07:46:33;1.48;;;1.23;;
75864;SDS011;64510;46.704;38.274;2023-04-06T07:49:00;1.65;;;1.30;;
75864;SDS011;64510;46.704;38.274;2023-04-06T07:51:29;1.15;;;0.90;;
75864;SDS011;64510;46.704;38.274;2023-04-06T07:53:56;3.22;;;1.13;;
75864;SDS011;64510;46.704;38.274;2023-04-06T07:56:22;2.17;;;0.73;;
75864;SDS011;64510;46.704;38.274;2023-04-06T07:58:48;2.85;;;1.35;;
75864;SDS011;64510;46.704;38.274;2023-04-06T08:01:14;2.42;;;1.20;;
75864;SDS011;64510;46.704;38.274;2023-04-06T08:03:40;1.83;;;1.13;;
75864;SDS011;64510;46.704;38.274;2023-04-06T08:06:06;1.80;;;0.90;;
75864;SDS011;64510;46.704;38.274;2023-04-06T08:08:32;4.47;;;1.67;;
75864;SDS011;64510;46.704;38.274;2023-04-06T08:10:58;3.63;;;0.90;;
75864;SDS011;64510;46.704;38.274;2023-04-06T08:13:24;3.22;;;1.15;;
75864;SDS011;64510;46.704;38.274;2023-04-06T08:15:50;2.00;;;1.90;;
75864;SDS011;64510;46.704;38.274;2023-04-06T08:18:16;2.35;;;1.35;;
75864;SDS011;64510;46.704;38.274;2023-04-06T08:20:42;3.22;;;1.08;;
75864;SDS011;64510;46.704;38.274;2023-04-06T08:23:08;0.63;;;0.63;;
75864;SDS011;64510;46.704;38.274;2023-04-06T08:25:35;2.42;;;1.25;;
75864;SDS011;64510;46.704;38.274;2023-04-06T08:28:01;1.33;;;1.00;;
75864;SDS011;64510;46.704;38.274;2023-04-06T08:30:28;2.70;;;0.90;;
75864;SDS011;64510;46.704;38.274;2023-04-06T08:32:54;2.42;;;1.25;;
75864;SDS011;64510;46.704;38.274;2023-04-06T08:35:20;2.45;;;1.35;;
75864;SDS011;64510;46.704;38.274;2023-04-06T08:37:46;4.15;;;1.55;;
75864;SDS011;64510;46.704;38.274;2023-04-06T08:40:13;1.30;;;0.82;;
75864;SDS011;64510;46.704;38.274;2023-04-06T08:42:39;1.85;;;1.15;;
75864;SDS011;64510;46.704;38.274;2023-04-06T08:45:09;1.48;;;0.77;;
75864;SDS011;64510;46.704;38.274;2023-04-06T08:47:36;0.75;;;0.60;;
75864;SDS011;64510;46.704;38.274;2023-04-06T08:50:05;0.77;;;0.77;;
75864;SDS011;64510;46.704;38.274;2023-04-06T08:54:59;1.13;;;1.05;;
75864;SDS011;64510;46.704;38.274;2023-04-06T08:57:26;1.08;;;0.70;;
75864;SDS011;64510;46.704;38.274;2023-04-06T08:59:52;2.65;;;0.70;;
75864;SDS011;64510;46.704;38.274;2023-04-06T09:02:20;1.33;;;0.88;;
75864;SDS011;64510;46.704;38.274;2023-04-06T09:04:47;1.48;;;1.02;;
75864;SDS011;64510;46.704;38.274;2023-04-06T09:07:15;2.10;;;1.10;;
75864;SDS011;64510;46.704;38.274;2023-04-06T09:09:41;2.70;;;1.10;;
75864;SDS011;64510;46.704;38.274;2023-04-06T09:15:17;2.78;;;1.20;;
75864;SDS011;64510;46.704;38.274;2023-04-06T09:17:46;3.05;;;1.38;;
75864;SDS011;64510;46.704;38.274;2023-04-06T09:20:12;4.03;;;1.33;;
75864;SDS011;64510;46.704;38.274;2023-04-06T09:22:39;5.72;;;1.73;;
75864;SDS011;64510;46.704;38.274;2023-04-06T09:25:05;4.90;;;1.02;;
75864;SDS011;64510;46.704;38.274;2023-04-06T09:27:32;2.17;;;1.00;;
75864;SDS011;64510;46.704;38.274;2023-04-06T09:30:03;4.65;;;1.30;;
75864;SDS011;64510;46.704;38.274;2023-04-06T09:32:32;2.35;;;1.10;;
75864;SDS011;64510;46.704;38.274;2023-04-06T09:35:11;1.55;;;1.05;;
75864;SDS011;64510;46.704;38.274;2023-04-06T09:37:37;1.75;;;1.00;;
75864;SDS011;64510;46.704;38.274;2023-04-06T09:40:03;5.72;;;2.70;;
75864;SDS011;64510;46.704;38.274;2023-04-06T09:42:33;4.05;;;2.00;;
75864;SDS011;64510;46.704;38.274;2023-04-06T09:45:00;3.03;;;1.50;;
75864;SDS011;64510;46.704;38.274;2023-04-06T09:47:26;1.00;;;0.98;;
75864;SDS011;64510;46.704;38.274;2023-04-06T09:49:55;2.25;;;1.00;;
75864;SDS011;64510;46.704;38.274;2023-04-06T09:52:26;2.47;;;1.50;;
75864;SDS011;64510;46.704;38.274;2023-04-06T09:55:02;2.60;;;1.27;;
75864;SDS011;64510;46.704;38.274;2023-04-06T09:57:49;2.90;;;1.25;;
75864;SDS011;64510;46.704;38.274;2023-04-06T10:00:21;3.67;;;1.35;;
75864;SDS011;64510;46.704;38.274;2023-04-06T10:05:58;0.75;;;0.75;;
75864;SDS011;64510;46.704;38.274;2023-04-06T10:08:24;1.02;;;0.80;;
75864;SDS011;64510;46.704;38.274;2023-04-06T10:10:53;2.25;;;0.80;;
75864;SDS011;64510;46.704;38.274;2023-04-06T10:13:20;2.33;;;1.25;;
75864;SDS011;64510;46.704;38.274;2023-04-06T10:15:47;1.20;;;0.88;;
75864;SDS011;64510;46.704;38.274;2023-04-06T10:18:14;4.03;;;1.15;;
75864;SDS011;64510;46.704;38.274;2023-04-06T10:20:51;3.60;;;1.00;;
75864;SDS011;64510;46.704;38.274;2023-04-06T10:26:01;5.53;;;1.05;;
75864;SDS011;64510;46.704;38.274;2023-04-06T10:28:32;0.70;;;0.70;;
75864;SDS011;64510;46.704;38.274;2023-04-06T10:31:00;1.60;;;1.00;;
75864;SDS011;64510;46.704;38.274;2023-04-06T10:33:30;2.45;;;1.33;;
75864;SDS011;64510;46.704;38.274;2023-04-06T10:35:56;4.68;;;1.67;;
75864;SDS011;64510;46.704;38.274;2023-04-06T10:38:35;2.00;;;1.35;;
75864;SDS011;64510;46.704;38.274;2023-04-06T10:41:03;1.13;;;1.02;;
75864;SDS011;64510;46.704;38.274;2023-04-06T10:43:33;2.40;;;1.30;;
75864;SDS011;64510;46.704;38.274;2023-04-06T10:46:03;3.67;;;0.73;;
75864;SDS011;64510;46.704;38.274;2023-04-06T10:48:39;1.17;;;0.93;;
75864;SDS011;64510;46.704;38.274;2023-04-06T10:51:15;1.25;;;1.08;;
75864;SDS011;64510;46.704;38.274;2023-04-06T10:53:42;1.85;;;0.93;;
75864;SDS011;64510;46.704;38.274;2023-04-06T10:56:11;1.52;;;0.93;;
75864;SDS011;64510;46.704;38.274;2023-04-06T10:58:49;0.70;;;0.70;;
75864;SDS011;64510;46.704;38.274;2023-04-06T11:01:21;4.53;;;0.95;;
75864;SDS011;64510;46.704;38.274;2023-04-06T11:03:49;1.42;;;0.80;;
75864;SDS011;64510;46.704;38.274;2023-04-06T11:06:19;2.38;;;1.05;;
75864;SDS011;64510;46.704;38.274;2023-04-06T11:08:45;0.93;;;0.63;;
75864;SDS011;64510;46.704;38.274;2023-04-06T11:11:12;1.45;;;1.00;;
75864;SDS011;64510;46.704;38.274;2023-04-06T11:16:15;2.90;;;2.00;;
75864;SDS011;64510;46.704;38.274;2023-04-06T11:18:49;4.18;;;2.03;;
75864;SDS011;64510;46.704;38.274;2023-04-06T11:21:42;6.72;;;2.92;;
75864;SDS011;64510;46.704;38.274;2023-04-06T11:24:23;1.83;;;1.73;;
75864;SDS011;64510;46.704;38.274;2023-04-06T11:26:50;2.05;;;1.05;;
75864;SDS011;64510;46.704;38.274;2023-04-06T11:29:19;1.90;;;0.95;;
75864;SDS011;64510;46.704;38.274;2023-04-06T11:31:47;0.57;;;0.57;;
75864;SDS011;64510;46.704;38.274;2023-04-06T11:34:21;2.20;;;1.00;;
75864;SDS011;64510;46.704;38.274;2023-04-06T11:36:49;1.10;;;1.00;;
75864;SDS011;64510;46.704;38.274;2023-04-06T11:39:23;0.55;;;0.55;;
75864;SDS011;64510;46.704;38.274;2023-04-06T11:41:50;1.50;;;0.70;;
75864;SDS011;64510;46.704;38.274;2023-04-06T11:46:59;1.95;;;1.38;;
75864;SDS011;64510;46.704;38.274;2023-04-06T11:49:29;9.38;;;1.02;;
75864;SDS011;64510;46.704;38.274;2023-04-06T11:51:56;0.70;;;0.70;;
75864;SDS011;64510;46.704;38.274;2023-04-06T11:54:56;1.48;;;0.90;;
75864;SDS011;64510;46.704;38.274;2023-04-06T11:57:16;1.33;;;1.00;;
75864;SDS011;64510;46.704;38.274;2023-04-06T11:59:43;1.95;;;1.00;;
75864;SDS011;64510;46.704;38.274;2023-04-06T12:02:10;0.52;;;0.50;;
75864;SDS011;64510;46.704;38.274;2023-04-06T12:04:36;1.00;;;1.00;;
75864;SDS011;64510;46.704;38.274;2023-04-06T12:07:03;2.10;;;1.10;;
75864;SDS011;64510;46.704;38.274;2023-04-06T12:09:29;1.45;;;0.98;;
75864;SDS011;64510;46.704;38.274;2023-04-06T12:11:56;1.75;;;0.70;;
75864;SDS011;64510;46.704;38.274;2023-04-06T12:14:22;0.75;;;0.73;;
75864;SDS011;64510;46.704;38.274;2023-04-06T12:16:48;2.75;;;0.75;;
75864;SDS011;64510;46.704;38.274;2023-04-06T12:19:15;4.78;;;1.77;;
75864;SDS011;64510;46.704;38.274;2023-04-06T12:21:40;3.40;;;1.08;;
75864;SDS011;64510;46.704;38.274;2023-04-06T12:24:07;1.30;;;1.20;;
75864;SDS011;64510;46.704;38.274;2023-04-06T12:26:33;0.60;;;0.60;;
75864;SDS011;64510;46.704;38.274;2023-04-06T12:29:01;0.70;;;0.70;;
75864;SDS011;64510;46.704;38.274;2023-04-06T12:31:32;2.15;;;0.93;;
75864;SDS011;64510;46.704;38.274;2023-04-06T12:34:00;1.25;;;1.15;;
75864;SDS011;64510;46.704;38.274;2023-04-06T12:36:28;1.02;;;0.93;;
75864;SDS011;64510;46.704;38.274;2023-04-06T12:38:55;1.38;;;1.27;;
75864;SDS011;64510;46.704;38.274;2023-04-06T12:41:20;2.88;;;1.27;;
75864;SDS011;64510;46.704;38.274;2023-04-06T12:43:46;1.15;;;1.00;;
75864;SDS011;64510;46.704;38.274;2023-04-06T12:46:15;1.17;;;0.73;;
75864;SDS011;64510;46.704;38.274;2023-04-06T12:48:41;1.02;;;1.00;;
75864;SDS011;64510;46.704;38.274;2023-04-06T12:51:07;6.15;;;1.20;;
75864;SDS011;64510;46.704;38.274;2023-04-06T12:53:33;1.42;;;0.95;;
75864;SDS011;64510;46.704;38.274;2023-04-06T12:56:00;0.80;;;0.55;;
75864;SDS011;64510;46.704;38.274;2023-04-06T12:58:27;1.10;;;0.90;;
75864;SDS011;64510;46.704;38.274;2023-04-06T13:00:53;0.98;;;0.98;;
75864;SDS011;64510;46.704;38.274;2023-04-06T13:03:21;1.50;;;0.77;;
75864;SDS011;64510;46.704;38.274;2023-04-06T13:05:48;2.97;;;0.95;;
75864;SDS011;64510;46.704;38.274;2023-04-06T13:08:20;1.67;;;0.70;;
75864;SDS011;64510;46.704;38.274;2023-04-06T13:10:46;0.90;;;0.90;;
75864;SDS011;64510;46.704;38.274;2023-04-06T13:13:16;1.42;;;0.95;;
75864;SDS011;64510;46.704;38.274;2023-04-06T13:15:43;1.60;;;0.90;;
75864;SDS011;64510;46.704;38.274;2023-04-06T13:18:10;0.95;;;0.80;;
75864;SDS011;64510;46.704;38.274;2023-04-06T13:20:36;5.22;;;0.88;;
75864;SDS011;64510;46.704;38.274;2023-04-06T13:23:02;1.00;;;0.73;;
75864;SDS011;64510;46.704;38.274;2023-04-06T13:25:29;0.95;;;0.70;;
75864;SDS011;64510;46.704;38.274;2023-04-06T13:27:55;0.60;;;0.60;;
75864;SDS011;64510;46.704;38.274;2023-04-06T13:30:21;0.82;;;0.55;;
75864;SDS011;64510;46.704;38.274;2023-04-06T13:32:47;1.48;;;0.65;;
75864;SDS011;64510;46.704;38.274;2023-04-06T13:35:13;4.88;;;0.70;;
75864;SDS011;64510;46.704;38.274;2023-04-06T13:37:39;1.05;;;0.60;;
75864;SDS011;64510;46.704;38.274;2023-04-06T13:40:05;1.42;;;1.25;;
75864;SDS011;64510;46.704;38.274;2023-04-06T13:42:32;3.20;;;0.82;;
75864;SDS011;64510;46.704;38.274;2023-04-06T13:45:00;0.60;;;0.60;;
75864;SDS011;64510;46.704;38.274;2023-04-06T13:47:26;4.47;;;0.65;;
75864;SDS011;64510;46.704;38.274;2023-04-06T13:49:54;0.50;;;0.50;;
75864;SDS011;64510;46.704;38.274;2023-04-06T13:52:21;2.00;;;0.60;;
75864;SDS011;64510;46.704;38.274;2023-04-06T13:54:48;4.68;;;0.50;;
75864;SDS011;64510;46.704;38.274;2023-04-06T13:57:15;0.55;;;0.50;;
75864;SDS011;64510;46.704;38.274;2023-04-06T13:59:41;1.85;;;0.85;;
75864;SDS011;64510;46.704;38.274;2023-04-06T14:02:08;0.50;;;0.50;;
75864;SDS011;64510;46.704;38.274;2023-04-06T14:04:35;1.92;;;0.88;;
75864;SDS011;64510;46.704;38.274;2023-04-06T14:07:02;0.60;;;0.60;;
75864;SDS011;64510;46.704;38.274;2023-04-06T14:09:29;0.55;;;0.55;;
75864;SDS011;64510;46.704;38.274;2023-04-06T14:11:55;1.20;;;1.10;;
75864;SDS011;64510;46.704;38.274;2023-04-06T14:14:22;3.60;;;0.75;;
75864;SDS011;64510;46.704;38.274;2023-04-06T14:16:48;1.85;;;0.68;;
75864;SDS011;64510;46.704;38.274;2023-04-06T14:19:15;0.80;;;0.80;;
75864;SDS011;64510;46.704;38.274;2023-04-06T14:21:46;1.20;;;0.45;;
75864;SDS011;64510;46.704;38.274;2023-04-06T14:24:13;1.85;;;0.95;;
75864;SDS011;64510;46.704;38.274;2023-04-06T14:26:39;0.50;;;0.50;;
75864;SDS011;64510;46.704;38.274;2023-04-06T14:29:06;1.13;;;0.65;;
75864;SDS011;64510;46.704;38.274;2023-04-06T14:31:33;0.77;;;0.70;;
75864;SDS011;64510;46.704;38.274;2023-04-06T14:34:00;0.20;;;0.20;;
75864;SDS011;64510;46.704;38.274;2023-04-06T14:36:28;1.00;;;0.60;;
75864;SDS011;64510;46.704;38.274;2023-04-06T14:38:58;1.08;;;0.77;;
75864;SDS011;64510;46.704;38.274;2023-04-06T14:41:24;4.30;;;0.88;;
75864;SDS011;64510;46.704;38.274;2023-04-06T14:43:50;1.23;;;0.70;;
75864;SDS011;64510;46.704;38.274;2023-04-06T14:46:17;0.65;;;0.57;;
75864;SDS011;64510;46.704;38.274;2023-04-06T14:48:44;1.13;;;1.13;;
75864;SDS011;64510;46.704;38.274;2023-04-06T14:51:10;2.38;;;0.60;;
75864;SDS011;64510;46.704;38.274;2023-04-06T14:53:37;0.57;;;0.57;;
75864;SDS011;64510;46.704;38.274;2023-04-06T14:56:03;2.75;;;1.08;;
75864;SDS011;64510;46.704;38.274;2023-04-06T14:58:29;0.70;;;0.70;;
75864;SDS011;64510;46.704;38.274;2023-04-06T15:00:56;0.60;;;0.60;;